Time;durP1;ratioP1;P1;durP2;ratioP2;P2;SDS_P1;SDS_P2;PMS_P1;PMS_P2;Temp;Humidity;BMP_temperature;BMP_pressure;BME280_temperature;BME280_humidity;BME280_pressure;Samples;Min_cycle;Max_cycle;Signal;HPM_P1;HPM_P2
2021/10/01 00:02:15;;;;;;;2.75;1.60;;;;;;;27.01;31.54;97353.34;4997336;28;20543;-34
2021/10/01 00:04:40;;;;;;;4.85;1.90;;;;;;;27.02;31.61;97354.16;4991158;28;20053;-33
2021/10/01 00:07:06;;;;;;;3.13;1.67;;;;;;;27.00;31.52;97355.09;4997487;28;20476;-30
2021/10/01 00:09:31;;;;;;;3.47;1.65;;;;;;;27.01;31.63;97345.44;5001780;28;20029;-30
2021/10/01 00:11:57;;;;;;;3.40;1.88;;;;;;;27.00;31.66;97346.34;4999609;28;20089;-31
2021/10/01 00:14:24;;;;;;;3.35;1.50;;;;;;;27.02;31.62;97346.28;5000847;28;20033;-36
2021/10/01 00:16:49;;;;;;;2.72;1.70;;;;;;;27.00;31.61;97344.56;4996472;28;20056;-29
2021/10/01 00:19:15;;;;;;;3.40;1.45;;;;;;;27.00;31.58;97339.31;5001820;28;20033;-32
2021/10/01 00:21:41;;;;;;;2.17;1.38;;;;;;;27.00;31.50;97336.69;4999122;28;20559;-34
2021/10/01 00:24:09;;;;;;;2.78;1.50;;;;;;;27.01;31.63;97342.81;5000063;28;20150;-35
2021/10/01 00:26:36;;;;;;;1.75;1.30;;;;;;;27.00;31.60;97330.56;4997945;28;20388;-30
2021/10/01 00:29:02;;;;;;;3.00;1.70;;;;;;;27.00;31.66;97335.81;5001798;28;20937;-30
2021/10/01 00:31:27;;;;;;;3.42;1.70;;;;;;;26.99;31.53;97326.25;4999476;28;20033;-30
2021/10/01 00:33:52;;;;;;;1.65;1.20;;;;;;;26.99;31.52;97323.59;5003241;28;20034;-37
2021/10/01 00:36:18;;;;;;;2.10;1.60;;;;;;;26.98;31.60;97325.41;5007713;28;20033;-35
2021/10/01 00:38:43;;;;;;;2.67;1.40;;;;;;;26.99;31.59;97320.97;5007507;28;20025;-35
2021/10/01 00:41:09;;;;;;;4.35;1.73;;;;;;;26.97;31.73;97314.97;5000503;28;20084;-29
2021/10/01 00:43:34;;;;;;;3.13;1.20;;;;;;;26.98;31.62;97316.66;5008474;28;20033;-31
2021/10/01 00:45:59;;;;;;;8.88;1.20;;;;;;;26.98;31.61;97316.66;5009094;28;20029;-34
2021/10/01 00:48:25;;;;;;;2.22;1.60;;;;;;;26.98;31.64;97316.66;5007326;28;20091;-30
2021/10/01 00:50:50;;;;;;;2.53;1.30;;;;;;;26.98;31.68;97316.66;5005804;28;20574;-31
2021/10/01 00:53:16;;;;;;;1.85;1.45;;;;;;;26.98;31.65;97317.50;5000469;28;20033;-36
2021/10/01 00:55:41;;;;;;;1.85;1.30;;;;;;;26.98;31.58;97308.75;5002897;28;20022;-31
2021/10/01 00:58:07;;;;;;;6.25;1.45;;;;;;;26.97;31.58;97307.06;4982931;28;20654;-34
2021/10/01 01:00:32;;;;;;;2.50;1.20;;;;;;;26.98;31.64;97300.88;5001840;28;20084;-28
2021/10/01 01:02:59;;;;;;;3.75;1.40;;;;;;;26.95;31.64;97295.75;5003374;28;20029;-31
2021/10/01 01:05:51;;;;;;;3.35;1.63;;;;;;;26.97;31.40;97301.81;5009492;28;20025;-34
2021/10/01 01:08:16;;;;;;;6.00;1.60;;;;;;;26.96;31.52;97298.31;4997785;28;20029;-33
2021/10/01 01:10:45;;;;;;;2.45;1.50;;;;;;;26.97;31.54;97288.66;5000651;28;20038;-29
2021/10/01 01:13:35;;;;;;;1.73;1.08;;;;;;;26.96;31.44;97279.06;4987196;28;20753;-37
2021/10/01 01:16:10;;;;;;;1.65;1.15;;;;;;;26.96;31.58;97281.69;4988219;28;20026;-34
2021/10/01 01:18:40;;;;;;;1.73;1.38;;;;;;;26.95;31.66;97286.09;5001231;28;20075;-32
2021/10/01 01:21:05;;;;;;;5.13;1.50;;;;;;;26.94;31.53;97283.50;4987382;28;20168;-36
2021/10/01 01:23:50;;;;;;;3.75;1.17;;;;;;;26.95;31.73;97275.56;4988009;28;20042;-37
2021/10/01 01:26:18;;;;;;;1.88;1.23;;;;;;;26.94;31.65;97273.88;5000639;28;20447;-36
2021/10/01 01:28:58;;;;;;;2.58;1.10;;;;;;;26.93;31.57;97258.16;5000476;28;20039;-33
2021/10/01 01:31:33;;;;;;;1.83;1.20;;;;;;;26.94;31.70;97262.47;5003667;28;20052;-30
2021/10/01 01:34:00;;;;;;;3.35;1.50;;;;;;;26.94;31.65;97262.47;4998849;28;20650;-34
2021/10/01 01:36:26;;;;;;;2.35;1.17;;;;;;;26.92;31.72;97261.72;5000485;28;20944;-31
2021/10/01 01:38:51;;;;;;;2.58;1.17;;;;;;;26.93;31.65;97263.41;5002398;28;20485;-35
2021/10/01 01:41:17;;;;;;;2.35;1.10;;;;;;;26.93;31.74;97260.78;4982251;28;21234;-31
2021/10/01 01:43:42;;;;;;;1.85;1.20;;;;;;;26.92;31.76;97252.03;4997980;28;20928;-33
2021/10/01 01:46:08;;;;;;;1.58;1.27;;;;;;;26.92;31.74;97254.66;4997550;28;20029;-34
2021/10/01 01:48:33;;;;;;;1.48;1.27;;;;;;;26.91;31.63;97245.06;4999078;28;20025;-35
2021/10/01 01:50:59;;;;;;;2.05;1.00;;;;;;;26.91;31.71;97246.84;4988076;28;20030;-31
2021/10/01 01:53:24;;;;;;;2.10;1.10;;;;;;;26.92;31.72;97248.56;5006667;28;20413;-35
2021/10/01 01:55:49;;;;;;;1.80;1.13;;;;;;;26.91;31.74;97241.56;5001382;28;20029;-39
2021/10/01 01:58:15;;;;;;;2.45;1.20;;;;;;;26.91;31.71;97237.19;5014586;28;20032;-30
2021/10/01 02:00:40;;;;;;;1.52;1.02;;;;;;;26.91;31.75;97231.06;4980749;28;20040;-31
2021/10/01 02:03:06;;;;;;;4.40;1.00;;;;;;;26.91;31.79;97237.19;4999118;28;20703;-35
2021/10/01 02:05:31;;;;;;;1.85;1.27;;;;;;;26.90;31.67;97238.13;4987447;28;20033;-26
2021/10/01 02:07:57;;;;;;;1.63;1.10;;;;;;;26.90;31.76;97235.47;4980957;28;20483;-31
2021/10/01 02:10:23;;;;;;;3.85;1.17;;;;;;;26.90;31.67;97232.00;4984853;28;20147;-36
2021/10/01 02:12:51;;;;;;;2.13;1.05;;;;;;;26.91;31.67;97231.06;4982797;28;20484;-30
2021/10/01 02:15:17;;;;;;;1.73;1.05;;;;;;;26.90;31.78;97226.72;4996831;28;20029;-33
2021/10/01 02:17:43;;;;;;;1.75;1.00;;;;;;;26.90;31.77;97226.72;5001274;28;20044;-32
2021/10/01 02:20:09;;;;;;;1.33;0.93;;;;;;;26.88;31.76;97216.28;4983646;28;20036;-36
2021/10/01 02:22:35;;;;;;;2.42;1.30;;;;;;;26.89;31.77;97223.28;4994846;28;20037;-29
2021/10/01 02:25:00;;;;;;;2.30;1.13;;;;;;;26.90;31.68;97213.59;5001237;28;20434;-36
2021/10/01 02:27:36;;;;;;;3.75;1.33;;;;;;;26.90;31.54;97213.59;5004822;28;20029;-31
2021/10/01 02:30:11;;;;;;;1.58;0.95;;;;;;;26.88;31.64;97201.38;5004895;28;20025;-31
2021/10/01 02:32:49;;;;;;;2.17;1.20;;;;;;;26.90;31.71;97203.06;4998681;28;20031;-34
2021/10/01 02:35:14;;;;;;;4.45;1.10;;;;;;;26.87;31.64;97194.41;5005675;28;20029;-36
2021/10/01 02:37:40;;;;;;;1.52;1.00;;;;;;;26.88;31.72;97195.25;5000400;28;20052;-31
2021/10/01 02:40:06;;;;;;;0.82;0.75;;;;;;;26.86;31.73;97195.31;5002876;28;20034;-28
2021/10/01 02:42:32;;;;;;;2.25;1.00;;;;;;;26.87;31.72;97199.69;4999536;28;20030;-30
2021/10/01 02:44:57;;;;;;;1.67;0.98;;;;;;;26.87;31.74;97189.16;5001263;28;20037;-35
2021/10/01 02:47:30;;;;;;;1.13;0.80;;;;;;;26.87;31.71;97183.91;5006824;28;20041;-36
2021/10/01 02:49:57;;;;;;;1.77;1.05;;;;;;;26.87;31.64;97189.16;5007728;28;20378;-28
2021/10/01 02:52:40;;;;;;;0.95;0.82;;;;;;;26.87;31.70;97190.94;5001981;28;20535;-29
2021/10/01 02:55:15;;;;;;;2.38;0.90;;;;;;;26.87;31.67;97188.28;4987336;28;20193;-32
2021/10/01 02:58:19;;;;;;;1.80;0.80;;;;;;;26.87;31.78;97188.28;4998099;28;20040;-29
2021/10/01 03:00:44;;;;;;;0.95;0.80;;;;;;;26.85;31.73;97180.47;4989075;28;20436;-34
2021/10/01 03:03:15;;;;;;;1.70;1.08;;;;;;;26.86;31.80;97187.44;5006036;28;20139;-32
2021/10/01 03:05:41;;;;;;;3.00;0.80;;;;;;;26.86;31.75;97186.59;4988765;28;20040;-34
2021/10/01 03:08:06;;;;;;;2.28;1.00;;;;;;;26.85;31.65;97184.91;4980858;28;20343;-33
2021/10/01 03:10:31;;;;;;;1.10;0.90;;;;;;;26.86;31.84;97178.72;4982820;28;20040;-32
2021/10/01 03:12:58;;;;;;;1.45;0.70;;;;;;;26.83;31.74;97177.09;4983600;28;20029;-32
2021/10/01 03:15:24;;;;;;;0.80;0.70;;;;;;;26.84;31.84;97177.94;4988804;28;20031;-32
2021/10/01 03:17:49;;;;;;;1.40;0.90;;;;;;;26.84;31.81;97178.78;4997572;28;20089;-34
2021/10/01 03:20:15;;;;;;;1.35;0.75;;;;;;;26.83;31.80;97177.09;5011570;28;20103;-34
2021/10/01 03:22:40;;;;;;;5.15;1.02;;;;;;;26.83;31.77;97168.34;4986829;28;20037;-30
2021/10/01 03:25:06;;;;;;;1.67;0.80;;;;;;;26.84;31.85;97172.66;5001055;28;20029;-32
2021/10/01 03:27:32;;;;;;;1.67;0.93;;;;;;;26.83;31.77;97169.22;5000273;28;20041;-29
2021/10/01 03:29:59;;;;;;;2.38;0.90;;;;;;;26.83;31.77;97171.84;5002532;28;20029;-31
2021/10/01 03:32:25;;;;;;;0.70;0.50;;;;;;;26.83;31.77;97174.47;4997571;28;20029;-29
2021/10/01 03:34:51;;;;;;;1.08;0.77;;;;;;;26.83;31.83;97168.34;4999309;28;20064;-36
2021/10/01 03:37:16;;;;;;;2.75;0.73;;;;;;;26.83;31.84;97169.22;4998194;28;20037;-34
2021/10/01 03:39:42;;;;;;;2.08;0.73;;;;;;;26.82;31.81;97170.16;5003130;28;20038;-29
2021/10/01 03:42:07;;;;;;;1.50;0.80;;;;;;;26.82;31.80;97164.03;4996542;28;20033;-32
2021/10/01 03:44:32;;;;;;;3.03;0.80;;;;;;;26.82;31.89;97164.88;5000301;28;20037;-27
2021/10/01 03:46:58;;;;;;;1.15;0.85;;;;;;;26.82;31.82;97159.63;4999265;28;20032;-32
2021/10/01 03:49:23;;;;;;;2.53;0.90;;;;;;;26.82;31.82;97162.25;4999291;28;20029;-34
2021/10/01 03:51:49;;;;;;;4.38;0.88;;;;;;;26.81;31.81;97155.28;5001508;28;20056;-35
2021/10/01 03:54:14;;;;;;;0.82;0.60;;;;;;;26.81;31.83;97157.91;5003480;28;20030;-30
2021/10/01 03:56:39;;;;;;;1.10;0.80;;;;;;;26.81;31.87;97149.19;4998504;28;20401;-29
2021/10/01 03:59:05;;;;;;;0.95;0.73;;;;;;;26.81;31.79;97155.28;5000197;28;20029;-27
2021/10/01 04:01:30;;;;;;;2.10;0.80;;;;;;;26.80;31.87;97150.94;5003901;28;20800;-29
2021/10/01 04:03:56;;;;;;;0.60;0.60;;;;;;;26.81;31.74;97155.28;4999751;28;20442;-34
2021/10/01 04:06:21;;;;;;;1.20;0.52;;;;;;;26.81;31.74;97144.75;5001682;28;20861;-29
2021/10/01 04:08:46;;;;;;;1.23;0.73;;;;;;;26.80;31.92;97148.31;5005737;28;20072;-33
2021/10/01 04:11:12;;;;;;;1.92;0.93;;;;;;;26.79;31.81;97144.00;5004382;28;20629;-31
2021/10/01 04:13:39;;;;;;;2.20;0.75;;;;;;;26.79;31.83;97144.00;5005916;28;20037;-36
2021/10/01 04:16:05;;;;;;;1.25;0.80;;;;;;;26.80;31.91;97139.56;5002322;28;20608;-33
2021/10/01 04:18:30;;;;;;;2.72;0.80;;;;;;;26.79;31.88;97140.50;5004500;28;20087;-31
2021/10/01 04:20:56;;;;;;;2.97;0.75;;;;;;;26.80;31.82;97139.56;5000094;28;20052;-31
2021/10/01 04:23:21;;;;;;;1.27;0.68;;;;;;;26.79;31.88;97138.75;5007967;28;20021;-30
2021/10/01 04:25:47;;;;;;;1.23;0.63;;;;;;;26.79;31.87;97138.75;5003978;28;20025;-33
2021/10/01 04:28:12;;;;;;;2.90;0.70;;;;;;;26.78;31.92;97131.78;5001361;28;20109;-33
2021/10/01 04:30:47;;;;;;;0.77;0.60;;;;;;;26.79;31.81;97128.22;5011307;28;20025;-31
2021/10/01 04:33:23;;;;;;;2.13;0.80;;;;;;;26.78;31.78;97131.78;5002966;28;20034;-34
2021/10/01 04:35:49;;;;;;;1.67;0.90;;;;;;;26.77;31.93;97127.44;5008467;28;20747;-35
2021/10/01 04:38:14;;;;;;;1.15;0.57;;;;;;;26.78;31.93;97137.03;5011388;28;20026;-34
2021/10/01 04:40:40;;;;;;;3.03;1.00;;;;;;;26.78;31.85;97130.94;5002246;28;20017;-29
2021/10/01 04:43:05;;;;;;;1.40;0.88;;;;;;;26.76;31.97;97133.63;5003315;28;20978;-30
2021/10/01 04:45:31;;;;;;;1.80;0.90;;;;;;;26.76;31.95;97131.00;5003445;28;20524;-33
2021/10/01 04:47:56;;;;;;;1.88;0.80;;;;;;;26.76;31.84;97138.88;5003135;28;20022;-34
2021/10/01 04:50:21;;;;;;;1.23;0.70;;;;;;;26.76;32.01;97136.25;5006200;28;20032;-34
2021/10/01 04:52:47;;;;;;;0.73;0.70;;;;;;;26.76;32.13;97138.88;5000935;28;20507;-33
2021/10/01 04:55:12;;;;;;;0.90;0.60;;;;;;;26.76;31.87;97133.63;5002107;28;20033;-34
2021/10/01 04:57:38;;;;;;;3.13;0.65;;;;;;;26.76;31.86;97138.88;4996732;28;20025;-30
2021/10/01 05:00:03;;;;;;;3.97;0.82;;;;;;;26.75;31.80;97137.19;5003114;28;20111;-29
2021/10/01 05:02:29;;;;;;;10.55;1.10;;;;;;;26.75;31.73;97134.56;5000285;28;20447;-31
2021/10/01 05:04:55;;;;;;;3.75;1.00;;;;;;;26.74;31.73;97136.34;5001283;28;20029;-33
2021/10/01 05:07:21;;;;;;;1.75;0.80;;;;;;;26.73;31.66;97134.66;4998366;28;20021;-35
2021/10/01 05:09:46;;;;;;;3.40;1.65;;;;;;;26.72;31.04;97137.34;5003414;28;20029;-35
2021/10/01 05:12:12;;;;;;;8.82;2.05;;;;;;;26.70;30.27;97139.22;5002161;28;20455;-34
2021/10/01 05:14:38;;;;;;;5.22;1.92;;;;;;;26.69;30.07;97129.63;5004753;28;20083;-29
2021/10/01 05:17:03;;;;;;;4.85;2.00;;;;;;;26.67;29.81;97128.84;4990331;28;20053;-34
2021/10/01 05:19:29;;;;;;;5.25;1.77;;;;;;;26.66;29.81;97132.41;4999717;28;20519;-31
2021/10/01 05:21:54;;;;;;;10.77;2.50;;;;;;;26.65;29.93;97133.34;4999268;28;20396;-32
2021/10/01 05:24:19;;;;;;;6.35;2.42;;;;;;;26.61;29.74;97133.50;5004557;28;20900;-33
2021/10/01 05:26:45;;;;;;;10.70;3.38;;;;;;;26.60;29.80;97139.69;4984347;28;20033;-31
2021/10/01 05:29:10;;;;;;;7.15;2.78;;;;;;;26.59;29.69;97137.97;5004276;28;20030;-36
2021/10/01 05:31:36;;;;;;;9.80;2.95;;;;;;;26.57;29.70;97137.22;5003034;28;20033;-31
2021/10/01 05:34:02;;;;;;;5.55;2.60;;;;;;;26.57;29.79;97134.59;4986815;28;20186;-36
2021/10/01 05:36:27;;;;;;;8.27;2.58;;;;;;;26.56;29.76;97127.63;5003544;28;20035;-30
2021/10/01 05:38:53;;;;;;;8.43;2.88;;;;;;;26.56;29.83;97126.78;5001234;28;20040;-36
2021/10/01 05:41:19;;;;;;;6.72;2.72;;;;;;;26.55;29.70;97125.09;5000725;28;20092;-30
2021/10/01 05:43:45;;;;;;;4.22;2.20;;;;;;;26.54;29.60;97118.13;5004780;28;20508;-33
2021/10/01 05:46:10;;;;;;;7.80;2.60;;;;;;;26.52;29.58;97119.97;4972530;28;20034;-34
2021/10/01 05:48:38;;;;;;;10.73;2.35;;;;;;;26.51;29.65;97119.13;4999704;28;20018;-32
2021/10/01 05:51:07;;;;;;;5.55;2.58;;;;;;;26.50;29.64;97120.03;5000681;28;20025;-34
2021/10/01 05:56:01;;;;;;;10.30;2.40;;;;;;;26.50;29.58;97127.94;5002892;28;20033;-29
2021/10/01 05:58:27;;;;;;;5.82;2.40;;;;;;;26.48;29.52;97121.91;4982817;28;20176;-35
2021/10/01 06:00:52;;;;;;;6.50;2.10;;;;;;;26.48;29.40;97125.38;5000462;28;20033;-32
2021/10/01 06:03:18;;;;;;;7.68;2.00;;;;;;;26.46;29.59;97122.00;4999450;28;20084;-33
2021/10/01 06:05:43;;;;;;;6.80;2.00;;;;;;;26.46;29.63;97129.00;5000486;28;20523;-28
2021/10/01 06:08:08;;;;;;;6.53;2.17;;;;;;;26.46;29.56;97127.25;4981324;28;20026;-32
2021/10/01 06:10:34;;;;;;;5.07;2.55;;;;;;;26.45;29.55;97125.56;5000867;28;20034;-30
2021/10/01 06:12:59;;;;;;;6.28;2.35;;;;;;;26.45;29.41;97124.69;5003022;28;20025;-33
2021/10/01 06:15:25;;;;;;;5.15;2.30;;;;;;;26.45;29.56;97124.69;4998994;28;20021;-30
2021/10/01 06:17:50;;;;;;;4.50;2.17;;;;;;;26.45;29.32;97124.69;4982486;28;20112;-34
2021/10/01 06:20:15;;;;;;;7.05;2.55;;;;;;;26.44;28.78;97117.75;5001555;28;20029;-34
2021/10/01 06:22:41;;;;;;;4.85;2.70;;;;;;;26.32;25.54;97120.03;5001998;28;20617;-29
2021/10/01 06:25:06;;;;;;;5.38;2.45;;;;;;;26.14;25.31;97118.31;5002774;28;20025;-33
2021/10/01 06:27:32;;;;;;;7.95;2.65;;;;;;;25.91;24.57;97115.03;5005984;28;20125;-30
2021/10/01 06:29:58;;;;;;;9.77;2.95;;;;;;;25.65;24.42;97119.75;4983603;28;20044;-36
2021/10/01 06:32:24;;;;;;;5.68;2.42;;;;;;;25.43;24.89;97121.59;4997346;28;20281;-30
2021/10/01 06:34:49;;;;;;;4.95;2.17;;;;;;;25.26;25.40;97126.75;4998662;28;20410;-30
2021/10/01 06:37:16;;;;;;;5.75;2.30;;;;;;;25.15;25.75;97122.88;4997465;28;20167;-29
2021/10/01 06:39:41;;;;;;;12.10;2.72;;;;;;;25.07;26.14;97124.97;5000801;28;20400;-31
2021/10/01 06:42:07;;;;;;;5.60;2.47;;;;;;;25.03;26.29;97119.03;5003162;28;20047;-36
2021/10/01 06:44:34;;;;;;;7.72;2.40;;;;;;;25.01;26.77;97126.09;5020844;28;20117;-30
2021/10/01 06:47:05;;;;;;;9.93;2.38;;;;;;;25.00;26.85;97124.41;5022207;28;20028;-31
2021/10/01 06:49:39;;;;;;;4.97;2.27;;;;;;;25.00;27.14;97116.53;5012907;28;20036;-35
2021/10/01 08:19:23;;;;;;;20.90;6.90;;;;;;;26.02;30.51;97091.75;5030158;28;20032;-35
2021/10/01 08:21:50;;;;;;;24.45;6.85;;;;;;;26.02;30.64;97091.75;5029957;28;20036;-37
2021/10/01 08:24:16;;;;;;;19.02;6.93;;;;;;;26.04;30.46;97081.13;5029813;28;20087;-32
2021/10/01 08:26:41;;;;;;;19.48;6.60;;;;;;;26.05;30.54;97082.88;5025855;28;20440;-32
2021/10/01 08:29:07;;;;;;;25.00;6.80;;;;;;;26.05;30.68;97081.06;5017697;28;20024;-37
2021/10/01 08:31:32;;;;;;;19.77;6.32;;;;;;;26.07;30.64;97079.22;5029994;28;20555;-35
2021/10/01 08:33:58;;;;;;;17.67;6.10;;;;;;;26.08;30.64;97078.28;5011723;28;20032;-34
2021/10/01 08:36:24;;;;;;;18.67;6.20;;;;;;;26.09;30.63;97079.16;5026539;28;20033;-35
2021/10/01 08:38:49;;;;;;;18.08;6.40;;;;;;;26.09;30.69;97074.72;5026703;28;20850;-37
2021/10/01 08:41:15;;;;;;;18.25;6.18;;;;;;;26.10;30.85;97081.69;5026950;28;20036;-36
2021/10/01 08:43:41;;;;;;;19.58;6.32;;;;;;;26.12;30.83;97083.41;5030760;28;20021;-35
2021/10/01 08:46:07;;;;;;;15.27;5.70;;;;;;;26.12;30.74;97071.09;5027394;28;20526;-34
2021/10/01 08:48:32;;;;;;;17.83;5.90;;;;;;;26.14;30.70;97068.41;5025341;28;20021;-33
2021/10/01 08:50:58;;;;;;;18.95;5.60;;;;;;;26.14;30.86;97064.00;5012207;28;20499;-36
2021/10/01 08:53:23;;;;;;;20.80;6.10;;;;;;;26.15;30.83;97062.22;5028591;28;20043;-36
2021/10/01 08:55:50;;;;;;;15.85;5.45;;;;;;;26.15;30.87;97059.59;5014561;28;20029;-33
2021/10/01 08:58:15;;;;;;;15.75;6.00;;;;;;;26.13;30.97;97054.44;5025830;28;20116;-32
2021/10/01 09:00:40;;;;;;;14.27;5.68;;;;;;;26.17;30.84;97047.25;5016074;28;20028;-37
2021/10/01 09:03:07;;;;;;;18.15;5.93;;;;;;;26.15;31.04;97044.69;5030802;28;20021;-34
2021/10/01 09:05:33;;;;;;;16.25;4.85;;;;;;;26.19;30.80;97050.63;5030075;28;20464;-31
2021/10/01 09:08:20;;;;;;;14.13;5.13;;;;;;;26.20;30.95;97047.09;5030974;28;20569;-35
2021/10/01 09:10:59;;;;;;;14.23;5.22;;;;;;;26.21;31.01;97043.53;5033553;28;20143;-31
2021/10/01 09:13:25;;;;;;;11.25;5.03;;;;;;;26.20;30.89;97036.59;5028005;28;20083;-34
2021/10/01 09:16:00;;;;;;;13.38;5.00;;;;;;;26.22;31.04;97045.22;5032253;28;20033;-35
2021/10/01 09:18:27;;;;;;;11.48;4.63;;;;;;;26.22;31.07;97040.84;5027183;28;20025;-35
2021/10/01 09:21:11;;;;;;;13.52;4.72;;;;;;;26.23;31.06;97031.16;5033470;28;20055;-36
2021/10/01 09:23:42;;;;;;;14.55;4.45;;;;;;;26.24;30.91;97032.88;5027936;28;20118;-34
2021/10/01 09:26:18;;;;;;;10.57;4.63;;;;;;;26.23;31.01;97026.78;5016306;28;21311;-37
2021/10/01 09:28:55;;;;;;;14.30;4.88;;;;;;;26.25;31.11;97018.81;5028798;28;20072;-34
2021/10/01 09:31:30;;;;;;;12.35;5.05;;;;;;;26.26;31.15;97015.28;5031590;28;20026;-33
2021/10/01 09:33:56;;;;;;;12.55;4.80;;;;;;;26.27;31.13;97011.72;5028301;28;20029;-33
2021/10/01 09:36:21;;;;;;;14.02;4.13;;;;;;;26.27;31.03;97006.47;5032208;28;20036;-31
2021/10/01 09:38:47;;;;;;;11.18;4.28;;;;;;;26.27;31.14;97008.25;5033345;28;20033;-34
2021/10/01 09:41:17;;;;;;;12.10;4.50;;;;;;;26.27;31.04;97009.09;5030214;28;20041;-38
2021/10/01 09:43:42;;;;;;;11.57;4.38;;;;;;;26.28;31.14;97005.53;5032033;28;20151;-35
2021/10/01 09:46:12;;;;;;;13.57;4.38;;;;;;;26.28;31.19;97000.28;5027851;28;20068;-34
2021/10/01 09:48:39;;;;;;;14.07;4.43;;;;;;;26.30;31.16;97000.19;5028897;28;20614;-32
2021/10/01 09:51:12;;;;;;;8.50;4.05;;;;;;;26.30;31.31;96995.81;5030232;28;20170;-31
2021/10/01 09:53:48;;;;;;;9.35;3.63;;;;;;;26.31;31.22;96987.00;5022452;28;20391;-32
2021/10/01 09:56:26;;;;;;;11.50;4.10;;;;;;;26.31;31.36;96981.75;5015168;28;20059;-37
2021/10/01 09:59:13;;;;;;;8.60;3.78;;;;;;;26.31;31.34;96971.22;5027165;28;20674;-37
2021/10/01 10:02:00;;;;;;;8.70;3.47;;;;;;;26.33;31.40;96974.63;5027749;28;20028;-36
2021/10/01 10:04:26;;;;;;;10.15;3.88;;;;;;;26.34;31.36;96964.97;5029066;28;20506;-33
2021/10/01 10:06:52;;;;;;;8.65;3.45;;;;;;;26.34;31.40;96970.22;5028789;28;20032;-36
2021/10/01 10:09:41;;;;;;;6.25;3.33;;;;;;;26.34;31.32;96968.44;5027673;28;20033;-38
2021/10/01 10:12:09;;;;;;;9.77;3.72;;;;;;;26.36;31.40;96963.13;5030195;28;20017;-35
2021/10/01 10:14:34;;;;;;;9.73;3.78;;;;;;;26.35;31.47;96961.41;5001728;28;20025;-37
2021/10/01 10:17:00;;;;;;;7.65;3.38;;;;;;;26.37;31.27;96961.31;5029356;28;20033;-33
2021/10/01 10:19:30;;;;;;;8.45;3.70;;;;;;;26.37;31.24;96958.69;5029406;28;20140;-36
2021/10/01 10:21:55;;;;;;;7.55;3.20;;;;;;;26.37;31.27;96958.69;5025874;28;20107;-31
2021/10/01 10:24:21;;;;;;;7.53;3.25;;;;;;;26.38;31.48;96957.78;5013325;28;20037;-34
2021/10/01 10:26:46;;;;;;;8.70;3.45;;;;;;;26.38;31.55;96955.16;5027082;28;20048;-32
2021/10/01 10:29:12;;;;;;;9.82;3.50;;;;;;;26.39;31.46;96946.34;5003191;28;20429;-35
2021/10/01 10:31:40;;;;;;;7.85;3.33;;;;;;;26.38;31.54;96950.72;5037453;28;20557;-35
2021/10/01 10:34:21;;;;;;;6.18;3.22;;;;;;;26.39;31.45;96946.34;5032582;28;20029;-35
2021/10/01 10:36:47;;;;;;;6.95;3.30;;;;;;;26.41;31.50;96952.34;5026173;28;20025;-33
2021/10/01 10:39:15;;;;;;;8.63;3.20;;;;;;;26.41;31.46;96947.94;5035237;28;20533;-30
2021/10/01 10:41:44;;;;;;;7.88;3.22;;;;;;;26.42;31.53;96951.41;5027939;28;20054;-41
2021/10/01 10:44:11;;;;;;;7.32;3.20;;;;;;;26.43;31.56;96938.19;5027235;28;20219;-36
2021/10/01 10:46:36;;;;;;;7.68;3.30;;;;;;;26.43;31.55;96945.25;5024972;28;20020;-36
2021/10/01 10:49:17;;;;;;;6.78;3.20;;;;;;;26.43;31.58;96940.00;5027790;28;20028;-35
2021/10/01 10:52:18;;;;;;;10.20;3.15;;;;;;;26.44;31.63;96936.44;5028653;28;20036;-35
2021/10/01 10:54:51;;;;;;;7.95;3.10;;;;;;;26.41;31.54;96928.69;5026347;28;20033;-39
2021/10/01 10:57:21;;;;;;;6.03;2.88;;;;;;;26.45;31.71;96935.50;5030949;28;20494;-36
2021/10/01 10:59:48;;;;;;;6.00;2.92;;;;;;;26.46;31.66;96929.28;5025958;28;20083;-36
2021/10/01 11:02:16;;;;;;;10.27;3.03;;;;;;;26.44;31.64;96929.41;5025989;28;20029;-33
2021/10/01 11:04:41;;;;;;;7.40;3.03;;;;;;;26.46;31.77;96926.66;5029539;28;20033;-31
2021/10/01 11:07:07;;;;;;;5.60;2.80;;;;;;;26.46;31.68;96929.28;5027022;28;20629;-30
2021/10/01 11:09:34;;;;;;;6.38;2.50;;;;;;;26.46;31.65;96922.28;5026212;28;20033;-32
2021/10/01 11:12:00;;;;;;;4.88;2.30;;;;;;;26.47;31.66;96920.50;5031196;28;20071;-35
2021/10/01 11:14:27;;;;;;;5.57;2.72;;;;;;;26.47;31.66;96912.63;5029285;28;20104;-33
2021/10/01 11:16:53;;;;;;;5.28;2.55;;;;;;;26.48;31.66;96909.06;5013095;28;20067;-35
2021/10/01 11:19:37;;;;;;;7.10;2.88;;;;;;;26.48;31.61;96909.06;5026624;28;20559;-38
2021/10/01 11:22:38;;;;;;;6.10;2.42;;;;;;;26.49;31.73;96902.88;5025954;28;20512;-34
2021/10/01 11:25:07;;;;;;;7.15;2.53;;;;;;;26.50;31.81;96895.84;5031619;28;20483;-37
2021/10/01 11:27:44;;;;;;;5.95;2.65;;;;;;;26.49;31.71;96894.97;5024976;28;20368;-37
2021/10/01 11:30:11;;;;;;;5.82;2.72;;;;;;;26.51;31.70;96890.50;5027722;28;20086;-36
2021/10/01 11:32:36;;;;;;;5.60;2.40;;;;;;;26.51;31.73;96881.75;5029725;28;20037;-36
2021/10/01 11:35:01;;;;;;;5.03;2.53;;;;;;;26.50;31.93;96875.66;5015892;28;20937;-36
2021/10/01 11:37:35;;;;;;;5.25;2.50;;;;;;;26.52;31.94;96878.19;5025832;28;20032;-34
2021/10/01 11:40:07;;;;;;;5.38;2.50;;;;;;;26.52;31.83;96876.44;5028230;28;20581;-31
2021/10/01 11:42:38;;;;;;;3.90;2.05;;;;;;;26.51;31.95;96866.84;5029714;28;20124;-31
2021/10/01 11:45:17;;;;;;;4.90;2.40;;;;;;;26.52;31.93;96860.66;5026045;28;20672;-38
2021/10/01 11:47:50;;;;;;;3.08;1.90;;;;;;;26.53;31.88;96856.22;5026078;28;20029;-33
2021/10/01 11:50:16;;;;;;;6.75;2.60;;;;;;;26.52;31.89;96847.50;5030368;28;20035;-38
2021/10/01 11:52:43;;;;;;;5.45;2.50;;;;;;;26.53;31.88;96851.84;4999594;28;20033;-33
2021/10/01 11:55:08;;;;;;;4.00;1.90;;;;;;;26.54;31.85;96844.81;5027474;28;20030;-36
2021/10/01 11:57:38;;;;;;;5.72;2.53;;;;;;;26.54;31.91;96844.81;5023004;28;20044;-33
2021/10/01 12:00:08;;;;;;;4.47;2.10;;;;;;;26.55;31.88;96834.19;5017118;28;20032;-38
2021/10/01 12:02:37;;;;;;;4.45;2.05;;;;;;;26.54;31.88;96824.63;5030125;28;20063;-30
2021/10/01 12:05:27;;;;;;;4.18;2.05;;;;;;;26.55;31.94;96820.22;5031401;28;20541;-36
2021/10/01 12:07:53;;;;;;;3.38;1.83;;;;;;;26.55;32.06;96826.31;5032290;28;20013;-37
2021/10/01 12:10:18;;;;;;;4.72;2.30;;;;;;;26.55;32.00;96818.41;5027393;28;20029;-34
2021/10/01 12:13:02;;;;;;;5.53;2.17;;;;;;;26.56;31.91;96812.25;5027460;28;20146;-32
2021/10/01 12:15:40;;;;;;;3.85;2.15;;;;;;;26.56;31.98;96817.50;5023071;28;20570;-33
2021/10/01 12:18:07;;;;;;;4.45;2.00;;;;;;;26.57;32.01;96816.56;5028868;28;20032;-37
2021/10/01 12:20:48;;;;;;;3.88;1.98;;;;;;;26.58;32.02;96814.78;5028753;28;20112;-34
2021/10/01 12:23:30;;;;;;;4.47;2.03;;;;;;;26.59;31.95;96811.22;5025072;28;20057;-34
2021/10/01 12:25:56;;;;;;;3.63;2.05;;;;;;;26.58;31.99;96804.28;5021117;28;20037;-35
2021/10/01 12:28:24;;;;;;;3.92;2.00;;;;;;;26.59;32.04;96806.81;5027487;28;20024;-33
2021/10/01 12:31:00;;;;;;;4.35;1.77;;;;;;;26.58;31.97;96799.03;5028024;28;20025;-36
2021/10/01 12:33:26;;;;;;;4.53;2.13;;;;;;;26.59;32.02;96798.91;5029453;28;20025;-29
2021/10/01 12:35:51;;;;;;;3.92;1.85;;;;;;;26.59;31.99;96793.66;5017357;28;20075;-35
2021/10/01 12:38:16;;;;;;;3.95;2.03;;;;;;;26.60;32.16;96790.13;4999703;28;20383;-35
2021/10/01 12:40:42;;;;;;;4.75;2.08;;;;;;;26.61;31.99;96785.69;5026272;28;20660;-34
2021/10/01 12:43:07;;;;;;;4.57;1.77;;;;;;;26.61;32.13;96783.94;5030288;28;20032;-34
2021/10/01 12:45:33;;;;;;;2.97;1.70;;;;;;;26.63;31.97;96788.25;5033204;28;20033;-29
2021/10/01 12:47:59;;;;;;;3.70;1.80;;;;;;;26.61;32.02;96778.66;5013030;28;20040;-34
2021/10/01 12:50:32;;;;;;;4.43;1.95;;;;;;;26.64;32.08;96776.78;5005899;28;20459;-35
2021/10/01 12:52:59;;;;;;;4.10;1.90;;;;;;;26.64;32.04;96772.38;5039015;28;20049;-34
2021/10/01 12:55:24;;;;;;;3.25;1.50;;;;;;;26.64;32.13;96772.38;5032701;28;20036;-35
2021/10/01 12:57:50;;;;;;;4.38;1.38;;;;;;;26.65;32.11;96768.00;5016482;28;20064;-33
2021/10/01 13:00:17;;;;;;;3.22;1.83;;;;;;;26.64;32.09;96761.88;5029116;28;20064;-35
2021/10/01 13:02:51;;;;;;;3.75;1.73;;;;;;;26.66;32.16;96764.41;5039356;28;20035;-32
2021/10/01 13:05:17;;;;;;;3.95;1.90;;;;;;;26.66;32.10;96759.16;5031258;28;20033;-38
2021/10/01 13:07:53;;;;;;;3.80;1.50;;;;;;;26.66;32.09;96756.53;5030753;28;20572;-31